createdAt,value
2022-10-07T00:02:15.036Z,68.31
2022-10-07T00:04:46.361Z,68.23
2022-10-07T00:07:13.446Z,68.12
2022-10-07T00:09:39.971Z,68.12
2022-10-07T00:12:07.029Z,68.06
2022-10-07T00:14:33.693Z,68.06
2022-10-07T00:17:00.262Z,68.28
2022-10-07T00:19:27.252Z,68.22
2022-10-07T00:21:53.969Z,68.47
2022-10-07T00:24:20.438Z,68.64
2022-10-07T00:26:47.178Z,68.93
2022-10-07T00:29:13.890Z,68.68
2022-10-07T00:31:41.737Z,68.90
2022-10-07T00:34:08.422Z,68.94
2022-10-07T00:36:36.904Z,68.90
2022-10-07T00:39:08.954Z,68.81
2022-10-07T00:41:37.897Z,68.59
2022-10-07T00:44:32.469Z,68.70
2022-10-07T00:46:59.973Z,68.86
2022-10-07T00:49:27.397Z,68.80
2022-10-07T00:51:54.063Z,68.74
2022-10-07T00:54:20.813Z,69.04
2022-10-07T00:56:47.386Z,69.13
2022-10-07T00:59:14.233Z,69.15
2022-10-07T01:01:42.468Z,69.22
2022-10-07T01:04:09.999Z,69.13
2022-10-07T01:06:39.342Z,68.99
2022-10-07T01:09:09.792Z,69.22
2022-10-07T01:11:59.272Z,69.24
2022-10-07T01:14:53.636Z,69.02
2022-10-07T01:17:28.017Z,68.81
2022-10-07T01:20:00.682Z,68.72
2022-10-07T01:22:55.169Z,68.56
2022-10-07T01:25:33.825Z,68.51
2022-10-07T01:28:13.409Z,68.54
2022-10-07T01:30:42.108Z,68.61
2022-10-07T01:33:15.005Z,68.58
2022-10-07T01:35:42.951Z,68.55
2022-10-07T01:38:09.884Z,68.76
2022-10-07T01:40:40.890Z,68.73
2022-10-07T01:43:07.692Z,68.92
2022-10-07T01:45:35.506Z,69.04
2022-10-07T01:48:02.355Z,68.83
2022-10-07T01:50:29.150Z,68.85
2022-10-07T01:53:41.069Z,68.90
2022-10-07T01:56:21.325Z,68.78
2022-10-07T01:58:50.841Z,68.85
2022-10-07T02:02:04.424Z,69.14
2022-10-07T02:04:33.692Z,68.96
2022-10-07T02:07:17.236Z,69.34
2022-10-07T02:09:50.316Z,69.30
2022-10-07T02:13:08.268Z,69.22
2022-10-07T02:15:48.900Z,69.19
2022-10-07T02:18:17.219Z,68.96
2022-10-07T02:20:48.495Z,68.82
2022-10-07T02:23:15.034Z,68.78
2022-10-07T02:25:45.829Z,68.80
2022-10-07T02:28:12.637Z,68.99
2022-10-07T02:30:39.248Z,69.14
2022-10-07T02:33:06.427Z,69.32
2022-10-07T02:35:40.649Z,69.37
2022-10-07T02:38:10.210Z,69.40
2022-10-07T02:40:40.175Z,69.34
2022-10-07T02:43:15.495Z,69.19
2022-10-07T02:45:46.082Z,69.23
2022-10-07T02:48:19.349Z,69.43
2022-10-07T02:50:47.491Z,69.50
2022-10-07T02:53:13.971Z,69.91
2022-10-07T02:55:40.527Z,69.94
2022-10-07T02:58:07.332Z,69.88
2022-10-07T03:06:04.838Z,70.06
2022-10-07T03:08:31.360Z,70.02
2022-10-07T03:10:57.773Z,69.80
2022-10-07T03:13:32.924Z,69.92
2022-10-07T03:15:59.389Z,69.92
2022-10-07T03:18:29.622Z,70.11
2022-10-07T03:20:56.578Z,70.18
2022-10-07T03:23:24.041Z,70.29
2022-10-07T03:25:54.641Z,70.14
2022-10-07T03:28:21.940Z,70.22
2022-10-07T03:30:48.841Z,70.32
2022-10-07T03:33:16.377Z,70.33
2022-10-07T03:35:42.838Z,70.29
2022-10-07T03:38:10.653Z,70.33
2022-10-07T03:40:38.257Z,70.30
2022-10-07T03:43:05.459Z,70.34
2022-10-07T03:45:32.031Z,70.29
2022-10-07T03:47:59.432Z,70.30
2022-10-07T03:50:26.203Z,70.21
2022-10-07T03:52:52.783Z,70.36
2022-10-07T03:55:19.920Z,70.14
2022-10-07T03:57:57.078Z,70.16
2022-10-07T04:00:26.633Z,70.13
2022-10-07T04:02:53.307Z,69.80
2022-10-07T04:05:20.586Z,69.68
2022-10-07T04:07:48.146Z,69.58
2022-10-07T04:10:16.761Z,69.61
2022-10-07T04:12:43.973Z,69.42
2022-10-07T04:15:14.020Z,69.27
2022-10-07T04:17:41.397Z,69.15
2022-10-07T04:20:08.531Z,69.06
2022-10-07T04:22:35.632Z,69.15
2022-10-07T04:25:21.417Z,69.13
2022-10-07T04:27:54.687Z,69.32
2022-10-07T04:30:21.520Z,69.50
2022-10-07T04:32:50.645Z,69.43
2022-10-07T04:35:18.266Z,69.19
2022-10-07T04:37:44.942Z,69.06
2022-10-07T04:40:11.674Z,68.99
2022-10-07T04:42:57.185Z,68.86
2022-10-07T04:45:23.624Z,68.76
2022-10-07T04:47:51.615Z,68.71
2022-10-07T04:50:18.148Z,68.69
2022-10-07T04:52:44.686Z,68.73
2022-10-07T04:55:14.398Z,68.48
2022-10-07T04:57:41.321Z,68.65
2022-10-07T05:00:08.833Z,68.67
2022-10-07T05:02:35.783Z,68.81
2022-10-07T05:05:02.353Z,68.66
2022-10-07T05:07:28.793Z,68.48
2022-10-07T05:09:55.379Z,68.64
2022-10-07T05:12:21.909Z,68.89
2022-10-07T05:14:48.422Z,68.61
2022-10-07T05:17:15.071Z,68.12
2022-10-07T05:19:41.589Z,67.32
2022-10-07T05:22:08.054Z,66.73
2022-10-07T05:24:34.792Z,65.79
2022-10-07T05:27:01.886Z,64.45
2022-10-07T05:29:28.356Z,62.95
2022-10-07T05:31:55.007Z,62.26
2022-10-07T05:34:21.648Z,60.88
2022-10-07T05:36:48.185Z,59.94
2022-10-07T05:39:14.678Z,58.00
2022-10-07T05:41:45.603Z,56.63
2022-10-07T05:44:12.432Z,54.56
2022-10-07T05:46:40.235Z,53.12
2022-10-07T05:49:06.869Z,52.24
2022-10-07T05:51:33.447Z,50.02
2022-10-07T05:54:00.046Z,48.14
2022-10-07T05:56:26.604Z,47.53
2022-10-07T05:58:53.194Z,48.67
2022-10-07T06:01:23.605Z,49.48
2022-10-07T06:03:57.529Z,49.62
2022-10-07T06:06:24.522Z,48.30
2022-10-07T06:08:51.306Z,46.34
2022-10-07T06:11:37.130Z,45.75
2022-10-07T06:14:03.997Z,43.98
2022-10-07T06:16:30.709Z,42.46
2022-10-07T06:18:57.534Z,41.37
2022-10-07T06:21:28.613Z,40.61
2022-10-07T06:23:55.708Z,38.75
2022-10-07T06:26:22.707Z,37.93
2022-10-07T06:28:49.395Z,36.66
2022-10-07T06:31:17.726Z,35.61
2022-10-07T06:33:44.461Z,35.05
2022-10-07T06:36:12.273Z,33.17
2022-10-07T06:38:41.354Z,31.95
2022-10-07T06:41:08.933Z,30.72
2022-10-07T06:43:35.377Z,29.52
2022-10-07T06:46:03.731Z,29.41
2022-10-07T06:48:32.338Z,30.20
2022-10-07T06:50:59.144Z,30.96
2022-10-07T06:53:25.944Z,31.32
2022-10-07T06:55:54.828Z,29.99
2022-10-07T06:58:22.127Z,29.04
2022-10-07T07:00:50.246Z,28.61
2022-10-07T07:03:17.420Z,26.77
2022-10-07T07:05:45.789Z,25.79
2022-10-07T07:08:15.896Z,24.66
2022-10-07T07:10:43.121Z,23.99
2022-10-07T07:13:09.915Z,23.68
2022-10-07T07:15:36.630Z,23.40
2022-10-07T07:18:04.282Z,23.09
2022-10-07T07:20:35.841Z,21.30
2022-10-07T07:23:02.905Z,21.26
2022-10-07T07:25:29.482Z,20.54
2022-10-07T07:27:58.693Z,20.26
2022-10-07T07:30:25.461Z,20.77
2022-10-07T07:32:52.157Z,20.44
2022-10-07T07:35:18.579Z,19.97
2022-10-07T07:37:46.174Z,19.41
2022-10-07T07:40:13.166Z,18.54
2022-10-07T07:42:39.808Z,18.63
2022-10-07T07:45:08.859Z,17.85
2022-10-07T07:47:35.995Z,18.13
2022-10-07T07:50:03.805Z,18.24
2022-10-07T07:52:30.509Z,18.00
2022-10-07T07:54:59.195Z,17.74
2022-10-07T07:57:26.909Z,18.34
2022-10-07T07:59:54.705Z,18.70
2022-10-07T08:02:22.362Z,19.60
2022-10-07T08:04:49.195Z,20.74
2022-10-07T08:07:16.200Z,21.88
2022-10-07T08:09:43.186Z,22.76
2022-10-07T08:12:09.645Z,23.83
2022-10-07T08:14:37.909Z,24.95
2022-10-07T08:17:04.443Z,25.69
2022-10-07T08:19:30.861Z,26.60
2022-10-07T08:21:58.213Z,27.30
2022-10-07T08:24:28.021Z,27.84
2022-10-07T08:26:54.581Z,28.23
2022-10-07T08:29:21.817Z,28.97
2022-10-07T08:31:49.253Z,29.47
2022-10-07T08:34:15.701Z,29.74
2022-10-07T08:36:47.197Z,30.18
2022-10-07T08:39:14.552Z,30.63
2022-10-07T08:42:08.710Z,31.22
2022-10-07T08:44:40.223Z,31.88
2022-10-07T08:47:16.249Z,32.48
2022-10-07T08:49:44.888Z,32.93
2022-10-07T08:52:42.478Z,33.28
2022-10-07T08:55:20.389Z,33.41
2022-10-07T08:58:04.394Z,34.18
2022-10-07T09:00:50.736Z,34.67
2022-10-07T09:03:44.681Z,35.40
2022-10-07T09:06:26.466Z,35.58
2022-10-07T09:08:57.287Z,35.88
2022-10-07T09:11:25.920Z,35.86
2022-10-07T09:13:54.911Z,35.57
2022-10-07T09:16:43.218Z,35.50
2022-10-07T09:19:16.931Z,35.62
2022-10-07T09:21:53.934Z,35.99
2022-10-07T09:24:23.369Z,36.38
2022-10-07T09:26:56.065Z,36.77
2022-10-07T09:29:24.483Z,36.81
2022-10-07T09:31:50.961Z,36.85
2022-10-07T09:34:26.336Z,37.04
2022-10-07T09:37:12.123Z,37.49
2022-10-07T09:39:39.277Z,37.55
2022-10-07T09:42:06.810Z,37.55
2022-10-07T09:44:33.224Z,37.71
2022-10-07T09:47:00.078Z,37.46
2022-10-07T09:49:29.572Z,37.62
2022-10-07T09:52:24.766Z,37.75
2022-10-07T09:54:52.886Z,38.04
2022-10-07T09:57:23.575Z,38.22
2022-10-07T09:59:50.360Z,38.60
2022-10-07T10:02:24.408Z,38.80
2022-10-07T10:04:53.278Z,38.65
2022-10-07T10:07:27.436Z,38.51
2022-10-07T10:09:55.463Z,38.40
2022-10-07T10:12:22.363Z,38.24
2022-10-07T10:14:56.503Z,38.44
2022-10-07T10:17:34.785Z,38.30
2022-10-07T10:20:26.346Z,38.09
2022-10-07T10:22:52.918Z,38.15
2022-10-07T10:25:50.669Z,38.22
2022-10-07T10:28:39.371Z,38.06
2022-10-07T10:31:22.867Z,38.42
2022-10-07T10:34:06.850Z,38.34
2022-10-07T10:36:33.452Z,38.57
2022-10-07T10:39:03.753Z,38.54
2022-10-07T10:41:42.329Z,38.67
2022-10-07T10:44:39.747Z,38.61
2022-10-07T10:47:33.809Z,38.74
2022-10-07T10:50:29.013Z,38.71
2022-10-07T10:53:20.812Z,38.38
2022-10-07T10:56:05.467Z,38.33
2022-10-07T10:58:43.289Z,38.28
2022-10-07T11:01:19.158Z,38.31
2022-10-07T11:04:09.851Z,38.38
2022-10-07T11:06:37.180Z,38.40
2022-10-07T11:09:03.880Z,38.06
2022-10-07T11:11:30.537Z,38.22
2022-10-07T11:14:09.390Z,38.33
2022-10-07T11:16:44.897Z,38.39
2022-10-07T11:19:27.039Z,38.44
2022-10-07T11:21:54.113Z,38.97
2022-10-07T11:24:25.276Z,38.98
2022-10-07T11:26:58.972Z,39.25
2022-10-07T11:29:44.207Z,39.30
2022-10-07T11:32:17.727Z,39.67
2022-10-07T11:34:54.337Z,39.88
2022-10-07T11:37:43.784Z,40.18
2022-10-07T11:40:10.239Z,40.34
2022-10-07T11:42:40.497Z,40.45
2022-10-07T11:45:08.371Z,40.68
2022-10-07T11:47:36.633Z,40.74
2022-10-07T11:50:07.835Z,40.55
2022-10-07T11:52:38.152Z,40.34
2022-10-07T11:55:05.813Z,40.52
2022-10-07T11:57:34.646Z,40.46
2022-10-07T12:00:08.401Z,40.58
2022-10-07T12:02:43.149Z,40.24
2022-10-07T12:05:35.860Z,40.55
2022-10-07T12:08:18.237Z,40.55
2022-10-07T12:10:44.840Z,40.76
2022-10-07T12:13:11.478Z,40.92
2022-10-07T12:15:40.055Z,41.01
2022-10-07T12:18:06.728Z,40.98
2022-10-07T12:20:51.446Z,40.73
2022-10-07T12:23:22.327Z,40.94
2022-10-07T12:26:00.780Z,40.72
2022-10-07T12:28:37.694Z,40.69
2022-10-07T12:31:16.624Z,40.91
2022-10-07T12:33:46.666Z,40.96
2022-10-07T12:36:22.285Z,41.07
2022-10-07T12:38:58.870Z,41.10
2022-10-07T12:41:32.892Z,41.19
2022-10-07T12:44:23.517Z,41.28
2022-10-07T12:46:56.509Z,41.21
2022-10-07T12:49:30.408Z,41.24
2022-10-07T12:51:59.437Z,41.27
2022-10-07T12:54:33.272Z,41.27
2022-10-07T12:57:00.586Z,41.28
2022-10-07T12:59:48.639Z,41.28
2022-10-07T13:02:43.768Z,41.51
2022-10-07T13:05:48.739Z,41.54
2022-10-07T13:08:36.142Z,41.77
2022-10-07T13:11:30.158Z,41.74
2022-10-07T13:14:10.880Z,42.04
2022-10-07T13:16:39.795Z,41.97
2022-10-07T13:19:06.256Z,42.10
2022-10-07T13:21:44.290Z,42.28
2022-10-07T13:24:15.119Z,42.49
2022-10-07T13:26:43.546Z,42.39
2022-10-07T13:29:39.418Z,42.41
2022-10-07T13:32:09.856Z,42.37
2022-10-07T13:34:36.342Z,42.42
2022-10-07T13:37:03.017Z,42.19
2022-10-07T13:39:30.755Z,42.45
2022-10-07T13:41:58.633Z,42.29
2022-10-07T13:44:27.813Z,42.56
2022-10-07T13:47:05.122Z,42.89
2022-10-07T13:49:37.702Z,42.89
2022-10-07T13:52:06.996Z,43.21
2022-10-07T13:54:33.848Z,43.15
2022-10-07T13:57:02.523Z,43.42
2022-10-07T13:59:29.177Z,43.84
2022-10-07T14:01:58.301Z,43.76
2022-10-07T14:04:33.798Z,43.67
2022-10-07T14:07:12.473Z,43.99
2022-10-07T14:09:49.225Z,44.11
2022-10-07T14:12:21.439Z,44.29
2022-10-07T14:14:49.445Z,44.54
2022-10-07T14:17:39.706Z,44.48
2022-10-07T14:20:16.102Z,44.72
2022-10-07T14:22:43.232Z,44.93
2022-10-07T14:25:28.034Z,45.17
2022-10-07T14:27:55.566Z,45.23
2022-10-07T14:30:55.554Z,45.13
2022-10-07T14:33:59.003Z,45.46
2022-10-07T14:36:25.710Z,45.68
2022-10-07T14:38:52.556Z,45.76
2022-10-07T14:41:21.533Z,45.91
2022-10-07T14:43:49.370Z,45.95
2022-10-07T14:46:18.673Z,46.09
2022-10-07T14:48:46.150Z,46.13
2022-10-07T14:51:13.230Z,46.26
2022-10-07T14:53:40.685Z,46.40
2022-10-07T14:56:07.483Z,46.58
2022-10-07T14:58:34.447Z,46.73
2022-10-07T15:01:01.162Z,47.02
2022-10-07T15:03:29.762Z,47.21
2022-10-07T15:05:56.251Z,47.16
2022-10-07T15:08:22.665Z,47.36
2022-10-07T15:10:49.285Z,47.42
2022-10-07T15:13:15.831Z,47.71
2022-10-07T15:15:42.887Z,47.55
2022-10-07T15:18:11.763Z,47.70
2022-10-07T15:20:39.552Z,47.93
2022-10-07T15:23:09.379Z,48.05
2022-10-07T15:25:36.283Z,48.35
2022-10-07T15:28:02.890Z,48.42
2022-10-07T15:30:29.871Z,48.59
2022-10-07T15:32:57.860Z,48.82
2022-10-07T15:35:25.007Z,48.94
2022-10-07T15:37:51.572Z,49.14
2022-10-07T15:40:18.333Z,49.34
2022-10-07T15:42:45.380Z,49.60
2022-10-07T15:45:12.413Z,49.74
2022-10-07T15:47:39.349Z,49.94
2022-10-07T15:50:06.502Z,50.13
2022-10-07T15:52:33.342Z,50.46
2022-10-07T15:55:03.719Z,50.55
2022-10-07T15:57:33.029Z,50.72
2022-10-07T15:59:59.912Z,50.75
2022-10-07T16:02:26.540Z,51.30
2022-10-07T16:04:52.995Z,51.37
2022-10-07T16:07:19.454Z,51.68
2022-10-07T16:09:46.419Z,51.81
2022-10-07T16:12:13.554Z,52.21
2022-10-07T16:14:40.439Z,52.48
2022-10-07T16:17:06.992Z,52.90
2022-10-07T16:19:33.615Z,53.06
2022-10-07T16:22:00.114Z,53.41
2022-10-07T16:24:29.020Z,53.77
2022-10-07T16:26:58.862Z,54.06
2022-10-07T16:29:44.066Z,54.31
2022-10-07T16:32:10.864Z,54.72
2022-10-07T16:34:38.822Z,55.02
2022-10-07T16:37:06.174Z,55.44
2022-10-07T16:39:32.628Z,55.53
2022-10-07T16:42:00.043Z,55.84
2022-10-07T16:44:27.916Z,56.14
2022-10-07T16:46:56.918Z,56.24
2022-10-07T16:49:25.924Z,56.55
2022-10-07T16:51:53.185Z,56.59
2022-10-07T16:54:19.878Z,56.54
2022-10-07T16:56:48.209Z,56.77
2022-10-07T16:59:22.470Z,56.86
2022-10-07T17:01:55.416Z,56.82
2022-10-07T17:04:22.312Z,57.09
2022-10-07T17:06:49.221Z,57.17
2022-10-07T17:09:17.421Z,57.27
2022-10-07T17:11:44.515Z,57.13
2022-10-07T17:14:16.363Z,57.43
2022-10-07T17:16:44.861Z,57.46
2022-10-07T17:19:17.687Z,57.84
2022-10-07T17:21:45.607Z,57.80
2022-10-07T17:24:13.173Z,57.87
2022-10-07T17:26:40.397Z,58.03
2022-10-07T17:29:08.455Z,58.39
2022-10-07T17:31:36.504Z,58.42
2022-10-07T17:34:06.271Z,58.59
2022-10-07T17:36:34.413Z,58.72
2022-10-07T17:39:00.969Z,59.01
2022-10-07T17:41:34.854Z,59.19
2022-10-07T17:44:02.408Z,59.63
2022-10-07T17:46:31.456Z,59.81
2022-10-07T17:48:59.343Z,59.91
2022-10-07T17:51:28.189Z,60.18
2022-10-07T17:53:55.313Z,60.11
2022-10-07T17:56:22.650Z,60.18
2022-10-07T17:58:49.204Z,60.39
2022-10-07T18:01:19.085Z,60.71
2022-10-07T18:03:53.401Z,60.90
2022-10-07T18:06:20.351Z,61.08
2022-10-07T18:08:48.016Z,61.11
2022-10-07T18:11:16.060Z,61.36
2022-10-07T18:14:01.164Z,61.40
2022-10-07T18:16:27.926Z,61.70
2022-10-07T18:18:55.208Z,61.92
2022-10-07T18:21:22.496Z,61.84
2022-10-07T18:23:50.545Z,62.18
2022-10-07T18:26:17.312Z,62.39
2022-10-07T18:28:44.064Z,62.84
2022-10-07T18:31:12.054Z,62.76
2022-10-07T18:33:39.231Z,63.09
2022-10-07T18:36:10.529Z,63.11
2022-10-07T18:38:39.332Z,63.07
2022-10-07T18:41:07.216Z,63.41
2022-10-07T18:43:33.735Z,63.50
2022-10-07T18:46:08.654Z,63.63
2022-10-07T18:48:36.392Z,63.52
2022-10-07T18:51:03.060Z,63.75
2022-10-07T18:53:34.196Z,63.94
2022-10-07T18:56:04.685Z,64.10
2022-10-07T18:58:38.782Z,64.35
2022-10-07T19:01:08.912Z,64.31
2022-10-07T19:03:35.527Z,64.36
2022-10-07T19:06:06.324Z,64.59
2022-10-07T19:08:33.070Z,64.50
2022-10-07T19:11:06.456Z,64.56
2022-10-07T19:13:48.901Z,64.51
2022-10-07T19:16:23.105Z,64.59
2022-10-07T19:18:51.536Z,64.59
2022-10-07T19:21:19.987Z,64.49
2022-10-07T19:23:50.679Z,64.76
2022-10-07T19:26:21.383Z,64.83
2022-10-07T19:28:48.960Z,64.91
2022-10-07T19:31:20.015Z,64.88
2022-10-07T19:33:47.163Z,64.97
2022-10-07T19:36:14.113Z,65.15
2022-10-07T19:38:44.191Z,65.12
2022-10-07T19:41:12.308Z,65.15
2022-10-07T19:43:39.579Z,65.16
2022-10-07T19:46:06.501Z,65.38
2022-10-07T19:48:33.781Z,65.71
2022-10-07T19:51:01.353Z,65.73
2022-10-07T19:53:33.970Z,65.92
2022-10-07T19:56:17.311Z,65.86
2022-10-07T19:58:48.931Z,66.02
2022-10-07T20:01:21.366Z,66.20
2022-10-07T20:03:48.853Z,66.20
2022-10-07T20:06:15.815Z,66.47
2022-10-07T20:08:43.827Z,66.49
2022-10-07T20:11:10.761Z,66.61
2022-10-07T20:13:37.908Z,66.59
2022-10-07T20:16:14.906Z,66.66
2022-10-07T20:18:41.522Z,66.63
2022-10-07T20:21:11.336Z,66.56
2022-10-07T20:23:40.383Z,66.55
2022-10-07T20:26:27.198Z,66.58
2022-10-07T20:28:55.569Z,66.38
2022-10-07T20:31:23.385Z,66.36
2022-10-07T20:33:51.624Z,66.28
2022-10-07T20:36:19.915Z,66.02
2022-10-07T20:39:05.616Z,66.16
2022-10-07T20:41:50.842Z,66.22
2022-10-07T20:44:17.712Z,66.29
2022-10-07T20:46:44.397Z,66.41
2022-10-07T20:49:23.148Z,66.57
2022-10-07T20:51:53.203Z,66.60
2022-10-07T20:54:20.346Z,66.43
2022-10-07T20:56:47.448Z,66.60
2022-10-07T20:59:14.268Z,66.54
2022-10-07T21:01:40.885Z,66.39
2022-10-07T21:04:08.267Z,66.27
2022-10-07T21:06:34.799Z,66.33
2022-10-07T21:09:01.368Z,66.22
2022-10-07T21:11:28.018Z,66.37
2022-10-07T21:13:57.381Z,66.48
2022-10-07T21:16:24.482Z,66.83
2022-10-07T21:18:51.297Z,67.11
2022-10-07T21:21:18.190Z,67.38
2022-10-07T21:23:45.536Z,67.67
2022-10-07T21:26:12.438Z,67.52
2022-10-07T21:28:39.508Z,67.45
2022-10-07T21:31:08.606Z,67.28
2022-10-07T21:33:36.436Z,67.39
2022-10-07T21:36:04.251Z,67.33
2022-10-07T21:38:33.889Z,67.37
2022-10-07T21:41:00.948Z,67.17
2022-10-07T21:43:27.994Z,67.04
2022-10-07T21:46:02.773Z,67.01
2022-10-07T21:48:30.150Z,67.05
2022-10-07T21:50:56.900Z,67.13
2022-10-07T21:53:23.723Z,67.26
2022-10-07T21:55:50.469Z,67.05
2022-10-07T21:58:17.000Z,67.09
2022-10-07T22:00:43.774Z,67.15
2022-10-07T22:03:13.188Z,67.44
2022-10-07T22:05:40.597Z,67.42
2022-10-07T22:08:29.638Z,67.33
2022-10-07T22:11:00.632Z,67.20
2022-10-07T22:13:28.203Z,67.31
2022-10-07T22:15:54.808Z,67.32
2022-10-07T22:18:21.991Z,67.40
2022-10-07T22:20:48.435Z,67.40
2022-10-07T22:23:15.258Z,67.26
2022-10-07T22:25:42.049Z,67.27
2022-10-07T22:28:08.526Z,67.27
2022-10-07T22:30:39.599Z,67.09
2022-10-07T22:33:06.623Z,67.22
2022-10-07T22:35:35.299Z,67.18
2022-10-07T22:38:02.448Z,67.34
2022-10-07T22:40:29.029Z,67.49
2022-10-07T22:42:55.913Z,67.65
2022-10-07T22:45:22.966Z,67.80
2022-10-07T22:47:50.321Z,67.88
2022-10-07T22:50:19.889Z,67.90
2022-10-07T22:52:47.876Z,67.91
2022-10-07T22:55:17.991Z,67.73
2022-10-07T22:57:44.422Z,67.71
2022-10-07T23:00:12.226Z,67.75
2022-10-07T23:02:38.728Z,67.79
2022-10-07T23:05:05.994Z,68.13
2022-10-07T23:07:32.857Z,68.91
2022-10-07T23:09:59.385Z,69.46
2022-10-07T23:12:25.885Z,69.60
2022-10-07T23:14:52.665Z,70.30
2022-10-07T23:17:19.425Z,70.55
2022-10-07T23:19:45.919Z,71.06
2022-10-07T23:22:12.991Z,70.95
2022-10-07T23:24:39.631Z,70.84
2022-10-07T23:27:06.148Z,70.42
2022-10-07T23:29:33.299Z,69.89
2022-10-07T23:31:59.992Z,69.86
2022-10-07T23:34:27.503Z,69.66
2022-10-07T23:36:55.370Z,69.72
2022-10-07T23:39:22.598Z,69.70
2022-10-07T23:41:49.272Z,69.19
2022-10-07T23:44:16.057Z,69.12
2022-10-07T23:46:42.837Z,68.97
2022-10-07T23:49:09.351Z,68.97
2022-10-07T23:51:36.018Z,68.89
2022-10-07T23:54:03.189Z,68.86
2022-10-07T23:56:30.102Z,68.55
2022-10-07T23:58:56.955Z,68.74
